Aérodrome :







RETROUVEZ-NOUS SUR...

 
LOGIN :

S'inscrire | Disclaimer

   EN    FR    IT 

 









Légende :    VFR   VFR Marginal   IFR   IFR Intensif   IFR Très Intensif
Visi : 
Plafond : 
>= 8 km
>= 3000ft
5 à 8 km
1000 à 3000 ft
1500m à 5 km
500 à 1000 ft
800 à 1500m
200 à 500 ft
< 800m
< 200 ft
Symboles :   Orages  Brouillard  Fortes neiges  Fortes précipitations  Vent > 20 kt






- Altitude de l'aérodrome : 74 ft
- Code IATA : STX


TISX - Henri E Rohlsen

DERNIER METAR :
  • 261053Z 05007KT 10SM SCT031 24/21 A3000 RMK AO2 SLP157 VCSH T02440211

METARs EXPIRÉS :
  • 260953Z AUTO 06007KT 10SM CLR 24/21 A2998 RMK AO2 SLP149 T02390211
  • 260853Z AUTO 05006KT 10SM FEW041 24/21 A2997 RMK AO2 RAB0758E09 SLP147 P0000 60000 T02390211 56009

TAF TISX
Valide du 26 à 06h jusqu'au 27 à 06h UTC


260540Z 2606/2706 06009KT P6SM FEW026
FM261400 08016KT P6SM FEW016 FEW026
FM261900 08016G25KT P6SM VCSH SCT025 SCT035
FM270300 06007KT P6SM SKC



MET'MAP, la Météo Aéronautique d'un coup d'oeil ! - Copyright ORBIFLY Décembre 2007 - Disclaimer

ORBIFLY MET'MAP TEAM :

Programmation & Développement : Alexandra Zaïnal
Sur une idée originale de : Baudouin d'Aumeries
Assistance à la programmation : Marc-Olivier Méhu
Soutien technique & logistique : Manuel Goepfert

Contact : metmap@orbifly.com




SOURCES & CREDITS :

   NOAA